createdAt,value
2019-03-24T00:01:40.465Z,4.28
2019-03-24T00:06:34.880Z,4.32
2019-03-24T00:09:03.224Z,4.27
2019-03-24T00:11:31.572Z,4.38
2019-03-24T00:16:36.149Z,4.34
2019-03-24T00:21:38.730Z,4.24
2019-03-24T00:24:07.096Z,4.20
2019-03-24T00:26:36.378Z,4.06
2019-03-24T00:29:04.720Z,3.99
2019-03-24T00:31:34.075Z,3.70
2019-03-24T00:34:03.410Z,3.70
2019-03-24T00:36:31.809Z,3.64
2019-03-24T00:39:01.214Z,3.64
2019-03-24T00:41:29.558Z,3.55
2019-03-24T00:43:57.924Z,3.48
2019-03-24T00:46:26.289Z,3.45
2019-03-24T00:48:54.647Z,3.55
2019-03-24T00:51:22.996Z,3.67
2019-03-24T00:53:51.344Z,3.63
2019-03-24T00:56:19.734Z,3.66
2019-03-24T00:58:48.068Z,3.64
2019-03-24T01:01:16.458Z,3.56
2019-03-24T01:03:44.795Z,3.43
2019-03-24T01:06:13.131Z,3.37
2019-03-24T01:08:41.524Z,3.25
2019-03-24T01:11:09.894Z,3.20
2019-03-24T01:13:38.305Z,3.31
2019-03-24T01:16:07.630Z,3.36
2019-03-24T01:18:36.019Z,3.38
2019-03-24T01:21:04.358Z,3.48
2019-03-24T01:23:32.733Z,3.47
2019-03-24T01:26:01.160Z,3.49
2019-03-24T01:28:29.515Z,3.49
2019-03-24T01:30:57.869Z,3.44
2019-03-24T01:36:00.476Z,3.45
2019-03-24T01:38:28.822Z,3.41
2019-03-24T01:40:57.170Z,3.34
2019-03-24T01:45:59.869Z,3.20
2019-03-24T01:48:28.332Z,3.23
2019-03-24T01:50:56.715Z,3.29
2019-03-24T01:53:25.064Z,3.42
2019-03-24T01:55:53.426Z,3.55
2019-03-24T01:58:22.722Z,3.52
2019-03-24T02:00:51.138Z,3.49
2019-03-24T02:03:19.415Z,3.52
2019-03-24T02:05:47.812Z,3.52
2019-03-24T02:10:50.347Z,3.50
2019-03-24T02:13:18.741Z,3.55
2019-03-24T02:15:47.980Z,3.67
2019-03-24T02:18:16.325Z,3.69
2019-03-24T02:20:44.727Z,3.56
2019-03-24T02:23:13.087Z,3.50
2019-03-24T02:25:41.589Z,3.49
2019-03-24T02:28:09.948Z,3.42
2019-03-24T02:30:38.274Z,3.40
2019-03-24T02:33:06.625Z,3.32
2019-03-24T02:35:35.058Z,3.21
2019-03-24T02:38:04.354Z,2.97
2019-03-24T02:40:32.705Z,2.40
2019-03-24T02:43:01.087Z,2.10
2019-03-24T02:48:03.677Z,1.92
2019-03-24T02:50:32.037Z,1.86
2019-03-24T02:53:00.405Z,1.91
2019-03-24T02:55:28.907Z,1.99
2019-03-24T03:00:31.474Z,1.69
2019-03-24T03:02:59.839Z,1.59
2019-03-24T03:05:29.168Z,1.67
2019-03-24T03:07:57.522Z,1.75
2019-03-24T03:10:25.930Z,1.86
2019-03-24T03:12:54.273Z,1.94
2019-03-24T03:15:22.629Z,2.09
2019-03-24T03:17:51.031Z,2.21
2019-03-24T03:20:19.382Z,2.31
2019-03-24T03:22:49.647Z,2.29
2019-03-24T03:25:17.993Z,2.23
2019-03-24T03:27:46.370Z,2.25
2019-03-24T03:30:14.919Z,2.22
2019-03-24T03:32:46.581Z,2.13
2019-03-24T03:35:14.929Z,1.95
2019-03-24T03:37:43.364Z,1.42
2019-03-24T03:40:11.711Z,1.14
2019-03-24T03:42:40.061Z,1.04
2019-03-24T03:45:08.407Z,1.37
2019-03-24T03:47:41.512Z,1.48
2019-03-24T03:50:09.896Z,1.74
2019-03-24T03:52:39.198Z,1.86
2019-03-24T03:55:07.587Z,1.90
2019-03-24T03:57:36.286Z,1.93
2019-03-24T04:00:06.565Z,1.84
2019-03-24T04:02:34.957Z,1.73
2019-03-24T04:05:03.305Z,1.82
2019-03-24T04:07:31.678Z,1.99
2019-03-24T04:10:00.087Z,2.05
2019-03-24T04:12:28.413Z,2.08
2019-03-24T04:14:56.754Z,1.92
2019-03-24T04:17:25.221Z,1.78
2019-03-24T04:22:27.662Z,1.50
2019-03-24T04:24:56.124Z,1.44
2019-03-24T04:27:24.501Z,1.40
2019-03-24T04:29:52.887Z,1.30
2019-03-24T04:32:21.282Z,1.31
2019-03-24T04:37:23.919Z,1.38
2019-03-24T04:39:52.268Z,1.50
2019-03-24T04:42:20.643Z,1.57
2019-03-24T04:47:23.308Z,1.81
2019-03-24T04:49:51.684Z,1.80
2019-03-24T04:52:20.033Z,1.74
2019-03-24T05:02:31.063Z,1.81
2019-03-24T05:04:59.419Z,1.79
2019-03-24T05:07:27.794Z,1.77
2019-03-24T05:09:56.152Z,1.80
2019-03-24T05:14:58.733Z,1.92
2019-03-24T05:17:27.984Z,1.89
2019-03-24T05:19:56.329Z,1.86
2019-03-24T05:22:25.557Z,1.77
2019-03-24T05:24:56.114Z,1.80
2019-03-24T05:27:24.448Z,1.91
2019-03-24T05:29:52.819Z,1.90
2019-03-24T05:32:21.168Z,2.00
2019-03-24T05:34:49.544Z,1.98
2019-03-24T05:37:18.019Z,1.94
2019-03-24T05:39:46.405Z,1.93
2019-03-24T05:42:14.743Z,1.91
2019-03-24T05:44:44.137Z,2.06
2019-03-24T05:47:12.442Z,2.11
2019-03-24T05:49:40.841Z,2.17
2019-03-24T05:52:09.188Z,2.25
2019-03-24T05:54:38.449Z,2.39
2019-03-24T05:57:06.893Z,2.47
2019-03-24T05:59:36.129Z,2.59
2019-03-24T06:02:04.476Z,2.67
2019-03-24T06:04:32.877Z,2.80
2019-03-24T06:09:37.391Z,3.03
2019-03-24T06:12:05.736Z,3.09
2019-03-24T06:14:34.095Z,3.20
2019-03-24T06:17:03.352Z,3.39
2019-03-24T06:19:31.706Z,3.47
2019-03-24T06:22:00.103Z,3.52
2019-03-24T06:24:28.484Z,3.70
2019-03-24T06:26:56.846Z,3.90
2019-03-24T06:29:25.197Z,3.95
2019-03-24T06:31:53.523Z,4.10
2019-03-24T06:34:21.915Z,4.26
2019-03-24T06:36:50.254Z,4.33
2019-03-24T06:39:18.603Z,4.60
2019-03-24T06:41:46.945Z,4.77
2019-03-24T06:44:15.417Z,4.83
2019-03-24T06:46:43.763Z,4.95
2019-03-24T06:49:13.114Z,5.11
2019-03-24T06:51:41.448Z,5.37
2019-03-24T06:54:09.815Z,5.48
2019-03-24T06:56:39.136Z,5.63
2019-03-24T06:59:07.506Z,5.77
2019-03-24T07:01:36.854Z,5.98
2019-03-24T07:04:05.290Z,6.11
2019-03-24T07:06:34.787Z,6.25
2019-03-24T07:09:01.972Z,6.40
2019-03-24T07:11:30.320Z,6.49
2019-03-24T07:13:58.665Z,6.53
2019-03-24T07:16:27.022Z,6.73
2019-03-24T07:18:55.360Z,6.95
2019-03-24T07:24:00.611Z,7.35
2019-03-24T07:26:28.417Z,7.56
2019-03-24T07:28:56.749Z,7.65
2019-03-24T07:31:25.087Z,7.85
2019-03-24T07:33:53.448Z,7.79
2019-03-24T07:36:21.847Z,7.90
2019-03-24T07:38:50.188Z,8.05
2019-03-24T07:41:18.601Z,8.35
2019-03-24T07:43:46.908Z,8.42
2019-03-24T07:46:15.259Z,8.56
2019-03-24T07:48:43.667Z,8.70
2019-03-24T07:51:12.007Z,8.81
2019-03-24T07:56:14.691Z,9.37
2019-03-24T07:58:43.033Z,9.70
2019-03-24T08:01:11.441Z,9.49
2019-03-24T08:03:40.750Z,9.46
2019-03-24T08:08:44.419Z,9.85
2019-03-24T08:11:11.663Z,10.09
2019-03-24T08:13:40.023Z,10.11
2019-03-24T08:16:09.317Z,10.50
2019-03-24T08:21:13.947Z,10.95
2019-03-24T08:23:42.321Z,11.18
2019-03-24T08:26:11.748Z,11.24
2019-03-24T08:28:40.090Z,11.73
2019-03-24T08:31:08.443Z,12.13
2019-03-24T08:33:36.807Z,12.19
2019-03-24T08:36:05.252Z,12.10
2019-03-24T08:38:33.639Z,12.35
2019-03-24T08:41:02.274Z,12.29
2019-03-24T08:43:30.736Z,12.88
2019-03-24T08:45:59.127Z,12.87
2019-03-24T08:48:27.490Z,12.80
2019-03-24T08:50:55.886Z,13.06
2019-03-24T08:53:24.278Z,13.59
2019-03-24T08:55:52.645Z,13.68
2019-03-24T08:58:21.032Z,13.94
2019-03-24T09:00:50.296Z,13.70
2019-03-24T09:03:18.618Z,14.09
2019-03-24T09:05:46.978Z,15.01
2019-03-24T09:08:15.319Z,16.44
2019-03-24T09:10:43.679Z,18.10
2019-03-24T09:15:46.228Z,20.90
2019-03-24T09:18:14.598Z,22.45
2019-03-24T09:20:43.900Z,22.84
2019-03-24T09:23:12.322Z,24.90
2019-03-24T09:25:40.683Z,23.77
2019-03-24T09:30:43.330Z,25.13
2019-03-24T09:33:11.670Z,25.59
2019-03-24T09:35:40.064Z,25.93
2019-03-24T09:38:08.749Z,25.66
2019-03-24T09:40:39.250Z,25.54
2019-03-24T09:43:07.733Z,25.86
2019-03-24T09:48:13.508Z,25.75
2019-03-24T09:50:41.867Z,27.65
2019-03-24T09:53:10.266Z,27.85
2019-03-24T09:55:39.588Z,28.57
2019-03-24T09:58:07.948Z,29.10
2019-03-24T10:00:36.310Z,28.72
2019-03-24T10:03:06.665Z,27.46
2019-03-24T10:05:35.009Z,29.05
2019-03-24T10:08:03.398Z,28.63
2019-03-24T10:10:31.777Z,29.38
2019-03-24T10:13:00.163Z,26.67
2019-03-24T10:15:28.510Z,28.82
2019-03-24T10:17:57.091Z,30.80
2019-03-24T10:20:25.489Z,32.83
2019-03-24T10:22:54.843Z,33.15
2019-03-24T10:25:23.175Z,27.80
2019-03-24T10:27:51.594Z,29.60
2019-03-24T10:30:19.932Z,33.18
2019-03-24T10:32:49.295Z,33.39
2019-03-24T10:35:17.686Z,33.65
2019-03-24T10:37:46.065Z,33.75
2019-03-24T10:40:14.408Z,34.36
2019-03-24T10:42:42.765Z,34.36
2019-03-24T10:45:11.142Z,31.44
2019-03-24T10:47:39.491Z,29.03
2019-03-24T10:50:07.855Z,27.97
2019-03-24T10:52:36.207Z,29.46
2019-03-24T10:55:04.550Z,28.92
2019-03-24T11:00:08.149Z,27.52
2019-03-24T11:02:36.550Z,29.28
2019-03-24T11:05:04.928Z,29.23
2019-03-24T11:07:33.411Z,28.98
2019-03-24T11:10:01.796Z,29.75
2019-03-24T11:12:30.182Z,32.28
2019-03-24T11:14:58.522Z,29.69
2019-03-24T11:17:26.965Z,30.22
2019-03-24T11:19:55.274Z,29.42
2019-03-24T11:22:23.637Z,29.91
2019-03-24T11:24:52.017Z,30.04
2019-03-24T11:27:20.392Z,27.92
2019-03-24T11:29:48.836Z,27.82
2019-03-24T11:32:17.167Z,28.17
2019-03-24T11:34:46.390Z,30.64
2019-03-24T11:37:14.737Z,32.82
2019-03-24T11:39:43.091Z,31.88
2019-03-24T11:42:11.431Z,33.80
2019-03-24T11:44:39.802Z,34.79
2019-03-24T11:47:08.145Z,31.99
2019-03-24T11:49:45.669Z,31.16
2019-03-24T11:52:05.017Z,34.99
2019-03-24T11:54:33.374Z,32.90
2019-03-24T11:57:02.611Z,30.90
2019-03-24T11:59:31.022Z,34.12
2019-03-24T12:02:01.257Z,33.43
2019-03-24T12:04:29.674Z,33.97
2019-03-24T12:06:58.020Z,30.09
2019-03-24T12:09:26.413Z,30.57
2019-03-24T12:11:54.757Z,30.01
2019-03-24T12:14:23.150Z,30.69
2019-03-24T12:16:51.520Z,31.00
2019-03-24T12:19:19.882Z,30.10
2019-03-24T12:21:48.228Z,32.79
2019-03-24T12:24:16.648Z,34.47
2019-03-24T12:26:45.007Z,29.68
2019-03-24T12:29:13.396Z,32.63
2019-03-24T12:31:41.758Z,32.94
2019-03-24T12:34:10.117Z,33.65
2019-03-24T12:36:38.533Z,35.55
2019-03-24T12:41:43.233Z,35.76
2019-03-24T12:44:11.610Z,33.89
2019-03-24T12:46:39.955Z,32.27
2019-03-24T12:49:08.313Z,30.82
2019-03-24T12:54:19.078Z,29.34
2019-03-24T12:56:47.441Z,32.05
2019-03-24T12:59:15.885Z,31.75
2019-03-24T13:01:44.273Z,30.59
2019-03-24T13:04:12.660Z,33.53
2019-03-24T13:06:41.046Z,33.94
2019-03-24T13:09:10.425Z,33.98
2019-03-24T13:14:13.171Z,31.85
2019-03-24T13:16:41.518Z,30.89
2019-03-24T13:19:09.888Z,31.69
2019-03-24T13:21:39.221Z,31.71
2019-03-24T13:24:07.601Z,30.96
2019-03-24T13:26:35.953Z,31.02
2019-03-24T13:29:04.294Z,28.78
2019-03-24T13:34:12.071Z,28.94
2019-03-24T13:36:40.512Z,28.97
2019-03-24T13:39:08.883Z,27.58
2019-03-24T13:41:37.231Z,27.80
2019-03-24T13:46:41.916Z,27.77
2019-03-24T13:49:10.273Z,30.04
2019-03-24T13:54:12.993Z,30.88
2019-03-24T13:56:41.342Z,29.90
2019-03-24T13:59:09.775Z,31.82
2019-03-24T14:01:38.113Z,28.39
2019-03-24T14:06:40.788Z,27.66
2019-03-24T14:09:09.141Z,27.07
2019-03-24T14:11:37.496Z,27.96
2019-03-24T14:14:05.836Z,29.79
2019-03-24T14:16:51.601Z,30.82
2019-03-24T14:19:19.960Z,29.19
2019-03-24T14:24:22.704Z,27.29
2019-03-24T14:26:51.070Z,29.08
2019-03-24T14:29:19.433Z,29.11
2019-03-24T14:31:47.771Z,27.06
2019-03-24T14:34:16.124Z,27.20
2019-03-24T14:36:44.506Z,27.76
2019-03-24T14:39:12.883Z,26.73
2019-03-24T14:41:41.207Z,25.91
2019-03-24T14:44:09.546Z,26.13
2019-03-24T14:46:37.932Z,25.92
2019-03-24T14:51:40.652Z,25.92
2019-03-24T14:54:08.999Z,25.11
2019-03-24T14:56:37.348Z,24.34
2019-03-24T14:59:05.705Z,24.41
2019-03-24T15:01:34.064Z,25.62
2019-03-24T15:06:39.829Z,26.73
2019-03-24T15:09:08.188Z,28.09
2019-03-24T15:11:36.647Z,25.78
2019-03-24T15:14:05.108Z,24.54
2019-03-24T15:16:33.469Z,24.31
2019-03-24T15:19:01.869Z,25.79
2019-03-24T15:24:04.520Z,25.09
2019-03-24T15:26:32.893Z,24.37
2019-03-24T15:29:01.224Z,24.56
2019-03-24T15:31:29.628Z,24.67
2019-03-24T15:33:57.997Z,23.31
2019-03-24T15:36:26.364Z,23.61
2019-03-24T15:38:54.721Z,24.44
2019-03-24T15:41:23.098Z,24.71
2019-03-24T15:43:51.443Z,24.65
2019-03-24T15:46:19.800Z,24.05
2019-03-24T15:48:50.078Z,24.47
2019-03-24T15:51:17.378Z,24.76
2019-03-24T15:56:19.242Z,23.57
2019-03-24T15:58:47.689Z,22.87
2019-03-24T16:01:16.075Z,22.87
2019-03-24T16:03:44.536Z,21.96
2019-03-24T16:06:12.950Z,21.37
2019-03-24T16:08:41.268Z,20.16
2019-03-24T16:11:09.609Z,19.53
2019-03-24T16:13:41.156Z,19.52
2019-03-24T16:16:09.560Z,19.14
2019-03-24T16:18:37.940Z,18.77
2019-03-24T16:21:06.293Z,18.62
2019-03-24T16:23:35.212Z,18.42
2019-03-24T16:28:39.932Z,18.31
2019-03-24T16:31:08.312Z,18.18
2019-03-24T16:33:36.721Z,18.07
2019-03-24T16:36:05.170Z,18.17
2019-03-24T16:38:33.528Z,18.13
2019-03-24T16:41:01.881Z,18.15
2019-03-24T16:43:30.293Z,18.33
2019-03-24T16:45:58.663Z,18.28
2019-03-24T16:48:36.474Z,17.90
2019-03-24T16:50:55.424Z,17.93
2019-03-24T16:53:23.808Z,17.97
2019-03-24T16:55:52.180Z,17.51
2019-03-24T16:58:20.571Z,17.27
2019-03-24T17:00:48.967Z,16.97
2019-03-24T17:03:18.238Z,16.69
2019-03-24T17:05:47.540Z,16.60
2019-03-24T17:08:15.918Z,16.37
2019-03-24T17:10:44.310Z,16.19
2019-03-24T17:13:12.672Z,16.03
2019-03-24T17:15:41.136Z,15.85
2019-03-24T17:18:09.448Z,15.78
2019-03-24T17:20:37.871Z,15.62
2019-03-24T17:23:06.224Z,15.48
2019-03-24T17:25:34.625Z,15.32
2019-03-24T17:28:03.032Z,15.18
2019-03-24T17:30:32.358Z,14.95
2019-03-24T17:33:00.728Z,14.85
2019-03-24T17:35:29.093Z,14.95
2019-03-24T17:40:31.721Z,14.83
2019-03-24T17:43:00.068Z,14.86
2019-03-24T17:45:31.434Z,14.76
2019-03-24T17:48:00.704Z,14.73
2019-03-24T17:50:30.036Z,14.73
2019-03-24T17:52:58.388Z,14.61
2019-03-24T17:55:27.784Z,14.40
2019-03-24T17:57:55.202Z,14.41
2019-03-24T18:00:35.015Z,14.33
2019-03-24T18:03:03.453Z,14.24
2019-03-24T18:05:33.749Z,14.11
2019-03-24T18:10:36.452Z,14.07
2019-03-24T18:15:40.014Z,14.07
2019-03-24T18:18:09.433Z,13.90
2019-03-24T18:20:37.793Z,13.70
2019-03-24T18:23:06.154Z,13.93
2019-03-24T18:25:34.600Z,14.00
2019-03-24T18:30:37.231Z,13.58
2019-03-24T18:33:05.584Z,13.68
2019-03-24T18:38:10.166Z,13.43
2019-03-24T18:40:39.403Z,13.26
2019-03-24T18:43:07.766Z,13.18
2019-03-24T18:45:36.207Z,13.02
2019-03-24T18:48:04.577Z,13.06
2019-03-24T18:50:33.929Z,12.94
2019-03-24T18:55:38.600Z,13.02
2019-03-24T18:58:06.954Z,12.86
2019-03-24T19:00:35.316Z,12.84
2019-03-24T19:03:03.683Z,12.89
2019-03-24T19:08:06.282Z,12.79
2019-03-24T19:13:08.909Z,12.50
2019-03-24T19:15:37.559Z,12.63
2019-03-24T19:18:05.646Z,12.59
2019-03-24T19:23:08.309Z,12.42
2019-03-24T19:25:36.656Z,12.55
2019-03-24T19:28:05.046Z,12.59
2019-03-24T19:30:36.308Z,12.43
2019-03-24T19:33:04.663Z,12.34
2019-03-24T19:35:33.049Z,12.38
2019-03-24T19:38:01.443Z,12.25
2019-03-24T19:40:29.792Z,12.39
2019-03-24T19:43:00.062Z,12.10
2019-03-24T19:45:28.410Z,11.98
2019-03-24T19:47:56.783Z,12.01
2019-03-24T19:50:25.142Z,12.09
2019-03-24T19:52:53.481Z,11.97
2019-03-24T19:55:21.833Z,12.00
2019-03-24T19:57:50.190Z,11.88
2019-03-24T20:00:18.552Z,11.94
2019-03-24T20:02:46.908Z,11.85
2019-03-24T20:05:15.310Z,11.73
2019-03-24T20:07:47.869Z,11.62
2019-03-24T20:10:12.075Z,11.69
2019-03-24T20:12:40.447Z,11.67
2019-03-24T20:15:09.740Z,11.56
2019-03-24T20:17:38.338Z,11.41
2019-03-24T20:20:06.726Z,11.22
2019-03-24T20:22:35.153Z,11.11
2019-03-24T20:25:03.577Z,10.97
2019-03-24T20:27:31.949Z,10.78
2019-03-24T20:30:00.427Z,10.70
2019-03-24T20:32:28.736Z,10.62
2019-03-24T20:37:31.348Z,10.48
2019-03-24T20:39:59.698Z,10.40
2019-03-24T20:42:28.109Z,10.25
2019-03-24T20:44:56.452Z,10.34
2019-03-24T20:47:24.831Z,10.37
2019-03-24T20:49:53.176Z,10.40
2019-03-24T20:54:55.857Z,10.49
2019-03-24T20:57:24.324Z,10.37
2019-03-24T20:59:52.671Z,10.38
2019-03-24T21:02:22.053Z,10.35
2019-03-24T21:04:50.399Z,10.25
2019-03-24T21:07:18.792Z,10.21
2019-03-24T21:12:23.381Z,10.18
2019-03-24T21:14:51.734Z,9.91
2019-03-24T21:17:21.032Z,9.83
2019-03-24T21:19:49.481Z,9.57
2019-03-24T21:22:18.800Z,9.35
2019-03-24T21:24:47.151Z,9.31
2019-03-24T21:27:15.484Z,9.04
2019-03-24T21:29:44.781Z,8.74
2019-03-24T21:32:13.276Z,8.53
2019-03-24T21:34:41.732Z,8.38
2019-03-24T21:37:10.048Z,8.28
2019-03-24T21:39:38.500Z,8.26
2019-03-24T21:42:06.856Z,8.04
2019-03-24T21:44:35.232Z,8.01
2019-03-24T21:47:03.592Z,7.96
2019-03-24T21:49:31.990Z,8.13
2019-03-24T21:52:00.371Z,8.12
2019-03-24T21:54:28.784Z,8.03
2019-03-24T21:56:57.188Z,7.96
2019-03-24T21:59:25.592Z,8.02
2019-03-24T22:01:54.315Z,7.87
2019-03-24T22:04:22.743Z,7.60
2019-03-24T22:06:51.084Z,7.44
2019-03-24T22:11:53.767Z,7.27
2019-03-24T22:14:22.141Z,7.10
2019-03-24T22:16:50.492Z,7.08
2019-03-24T22:19:18.862Z,7.09
2019-03-24T22:21:47.180Z,6.98
2019-03-24T22:24:17.529Z,6.99
2019-03-24T22:26:45.901Z,7.01
2019-03-24T22:29:14.246Z,7.23
2019-03-24T22:31:42.647Z,7.35
2019-03-24T22:34:11.853Z,7.49
2019-03-24T22:36:40.261Z,7.69
2019-03-24T22:39:08.598Z,7.68
2019-03-24T22:41:37.024Z,7.71
2019-03-24T22:44:05.391Z,7.67
2019-03-24T22:46:33.741Z,7.56
2019-03-24T22:49:02.108Z,7.50
2019-03-24T22:51:35.140Z,7.41
2019-03-24T22:54:03.701Z,7.29
2019-03-24T22:56:31.910Z,7.21
2019-03-24T22:59:01.233Z,7.16
2019-03-24T23:01:29.573Z,7.10
2019-03-24T23:03:57.934Z,7.23
2019-03-24T23:06:26.275Z,7.25
2019-03-24T23:08:54.654Z,7.16
2019-03-24T23:11:23.007Z,7.05
2019-03-24T23:13:51.353Z,7.10
2019-03-24T23:16:19.741Z,7.17
2019-03-24T23:18:48.085Z,7.27
2019-03-24T23:21:16.471Z,7.38
2019-03-24T23:23:44.820Z,7.58
2019-03-24T23:26:13.173Z,7.72
2019-03-24T23:28:41.515Z,7.84
2019-03-24T23:33:44.214Z,7.95
2019-03-24T23:36:12.611Z,7.93
2019-03-24T23:38:40.920Z,7.94
2019-03-24T23:41:09.288Z,7.84
2019-03-24T23:43:37.634Z,7.77
2019-03-24T23:46:05.983Z,7.62
2019-03-24T23:51:08.593Z,7.64
2019-03-24T23:53:37.927Z,7.58
2019-03-24T23:56:07.217Z,7.46
2019-03-24T23:58:40.781Z,7.29
